Time;durP1;ratioP1;P1;durP2;ratioP2;P2;SDS_P1;SDS_P2;PMS_P1;PMS_P2;Temp;Humidity;BMP_temperature;BMP_pressure;BME280_temperature;BME280_humidity;BME280_pressure;Samples;Min_cycle;Max_cycle;Signal;HPM_P1;HPM_P2
2021/08/21 00:00:39;;;;;;;3.88;2.78;;;16.40;94.50;;;;;;5054429;28;20469;-62
2021/08/21 00:03:08;;;;;;;3.63;2.50;;;16.40;94.50;;;;;;5054476;28;20029;-62
2021/08/21 00:05:33;;;;;;;4.15;2.17;;;16.40;94.60;;;;;;5054253;28;20503;-62
2021/08/21 00:07:59;;;;;;;2.83;2.28;;;16.30;94.60;;;;;;5054366;28;20041;-62
2021/08/21 00:10:26;;;;;;;3.30;2.70;;;16.30;94.70;;;;;;5054053;28;20032;-62
2021/08/21 00:12:52;;;;;;;2.95;2.17;;;16.20;94.70;;;;;;5053972;28;20473;-62
2021/08/21 00:15:20;;;;;;;3.30;2.33;;;16.20;94.80;;;;;;5054003;28;20032;-62
2021/08/21 00:17:45;;;;;;;3.47;2.45;;;16.20;94.80;;;;;;5054476;28;20017;-62
2021/08/21 00:20:12;;;;;;;5.10;2.72;;;16.10;94.80;;;;;;5054036;28;20025;-62
2021/08/21 00:22:38;;;;;;;3.55;2.97;;;16.10;95.20;;;;;;5053866;28;20036;-62
2021/08/21 00:25:05;;;;;;;6.43;3.58;;;16.10;94.90;;;;;;5053599;28;20033;-62
2021/08/21 00:27:30;;;;;;;3.70;3.30;;;16.10;94.90;;;;;;5054181;28;20487;-61
2021/08/21 00:29:56;;;;;;;5.10;3.78;;;16.10;94.90;;;;;;5053735;28;20520;-62
2021/08/21 00:32:22;;;;;;;4.93;3.78;;;16.10;95.00;;;;;;5053566;28;20032;-62
2021/08/21 00:34:47;;;;;;;4.35;3.50;;;16.10;95.00;;;;;;5035863;28;20033;-62
2021/08/21 00:37:13;;;;;;;3.65;3.05;;;16.00;95.10;;;;;;5053579;28;20381;-62
2021/08/21 00:39:38;;;;;;;4.60;3.38;;;16.00;95.20;;;;;;5035738;28;20017;-62
2021/08/21 00:42:05;;;;;;;4.05;3.38;;;16.00;95.20;;;;;;5035826;28;20032;-63
2021/08/21 00:44:32;;;;;;;4.03;2.90;;;15.90;95.30;;;;;;5053606;28;20030;-62
2021/08/21 00:47:15;;;;;;;2.75;2.53;;;15.90;95.30;;;;;;5053309;28;20056;-62
2021/08/21 00:49:52;;;;;;;3.58;3.08;;;15.90;95.30;;;;;;5053311;28;20025;-62
2021/08/21 00:52:23;;;;;;;4.45;3.42;;;15.80;95.50;;;;;;5053204;28;20024;-62
2021/08/21 00:54:49;;;;;;;4.47;3.42;;;15.90;95.50;;;;;;5035614;28;20021;-62
2021/08/21 00:57:16;;;;;;;5.25;3.80;;;15.80;95.60;;;;;;5053544;28;20460;-62
2021/08/21 00:59:43;;;;;;;4.60;4.10;;;15.80;95.60;;;;;;5035389;28;20029;-62
2021/08/21 01:02:09;;;;;;;5.18;3.67;;;15.80;95.60;;;;;;5053093;28;20021;-62
2021/08/21 01:04:50;;;;;;;4.43;3.85;;;15.80;95.70;;;;;;5053174;28;20078;-62
2021/08/21 01:07:22;;;;;;;4.07;3.10;;;15.80;95.70;;;;;;5053051;28;20082;-62
2021/08/21 01:09:48;;;;;;;3.63;2.55;;;15.80;95.70;;;;;;5052784;28;20032;-62
2021/08/21 01:12:16;;;;;;;2.97;2.58;;;15.80;95.80;;;;;;5053042;28;20028;-62
2021/08/21 01:14:44;;;;;;;2.90;2.30;;;15.70;95.80;;;;;;5052877;28;20025;-62
2021/08/21 01:17:10;;;;;;;3.78;2.75;;;15.70;95.90;;;;;;5052738;28;20393;-62
2021/08/21 01:19:41;;;;;;;3.47;2.60;;;15.70;95.90;;;;;;5053080;28;20025;-62
2021/08/21 01:22:15;;;;;;;4.38;2.80;;;15.70;96.00;;;;;;5052273;28;20029;-62
2021/08/21 01:24:50;;;;;;;2.45;2.20;;;15.70;96.00;;;;;;5052886;28;20029;-62
2021/08/21 01:27:20;;;;;;;4.15;3.00;;;15.60;96.00;;;;;;5052806;28;20543;-62
2021/08/21 01:29:47;;;;;;;4.25;3.40;;;15.60;96.10;;;;;;5052541;28;20028;-62
2021/08/21 01:32:13;;;;;;;6.20;3.85;;;15.60;96.10;;;;;;5052719;28;20472;-62
2021/08/21 01:34:38;;;;;;;4.25;3.78;;;15.60;96.10;;;;;;5052676;28;20037;-62
2021/08/21 01:37:04;;;;;;;5.03;3.60;;;15.60;96.10;;;;;;5052613;28;20025;-62
2021/08/21 01:39:30;;;;;;;4.07;3.42;;;15.50;96.10;;;;;;5034955;28;20086;-62
2021/08/21 01:41:55;;;;;;;3.13;2.50;;;15.50;96.20;;;;;;5034967;28;20387;-62
2021/08/21 01:44:21;;;;;;;2.17;1.77;;;15.40;96.20;;;;;;5052596;28;20484;-62
2021/08/21 01:46:48;;;;;;;1.95;1.58;;;15.40;96.40;;;;;;5052400;28;20057;-62
2021/08/21 01:49:15;;;;;;;2.72;2.35;;;15.30;96.50;;;;;;5052655;28;20028;-62
2021/08/21 01:51:46;;;;;;;2.78;2.33;;;15.30;96.50;;;;;;5052355;28;20032;-62
2021/08/21 01:54:13;;;;;;;2.65;2.03;;;15.30;96.50;;;;;;5052384;28;20029;-62
2021/08/21 01:57:09;;;;;;;;;;;;;;;;;;;;;
2021/08/21 01:59:37;;;;;;;2.33;2.10;;;15.30;96.60;;;;;;5052446;28;20376;-62
2021/08/21 02:02:05;;;;;;;2.63;1.98;;;15.20;96.70;;;;;;5052428;28;20013;-62
2021/08/21 02:04:32;;;;;;;1.85;1.30;;;15.20;97.00;;;;;;5052567;28;20074;-62
2021/08/21 02:06:57;;;;;;;2.67;2.10;;;15.20;96.70;;;;;;5052316;28;20041;-62
2021/08/21 02:09:25;;;;;;;2.42;1.73;;;15.20;96.70;;;;;;5052493;28;20148;-61
2021/08/21 02:11:53;;;;;;;1.85;1.38;;;15.20;96.80;;;;;;5052290;28;20469;-62
2021/08/21 02:14:19;;;;;;;2.22;1.40;;;15.10;96.80;;;;;;5052278;28;20051;-62
2021/08/21 02:16:48;;;;;;;2.50;1.70;;;15.10;96.90;;;;;;5034224;28;20095;-61
2021/08/21 02:19:14;;;;;;;1.83;1.63;;;15.10;96.90;;;;;;5052094;28;20033;-62
2021/08/21 02:21:39;;;;;;;2.53;1.70;;;15.00;96.90;;;;;;5052629;28;20033;-62
2021/08/21 02:24:06;;;;;;;2.28;1.77;;;15.00;96.90;;;;;;5052129;28;20036;-62
2021/08/21 02:26:37;;;;;;;2.00;1.58;;;15.00;97.00;;;;;;5052137;28;20078;-62
2021/08/21 02:29:03;;;;;;;2.55;2.00;;;15.00;97.00;;;;;;5052334;28;20028;-61
2021/08/21 02:31:28;;;;;;;3.22;1.98;;;15.10;97.00;;;;;;5052212;28;20025;-62
2021/08/21 02:33:54;;;;;;;3.55;2.67;;;15.10;97.10;;;;;;5052153;28;20036;-62
2021/08/21 02:36:19;;;;;;;3.05;2.55;;;15.10;97.10;;;;;;5055391;28;20025;-62
2021/08/21 02:38:46;;;;;;;6.18;2.90;;;15.10;97.10;;;;;;5055889;28;20358;-62
2021/08/21 02:41:12;;;;;;;4.50;3.28;;;15.10;97.20;;;;;;5055911;28;20020;-62
2021/08/21 02:43:37;;;;;;;4.20;3.50;;;15.10;97.20;;;;;;5055937;28;20056;-62
2021/08/21 02:46:53;;;;;;;;;;;;;;;;;;;;;
2021/08/21 02:52:10;;;;;;;3.50;2.10;;;15.10;97.30;;;;;;5011885;28;20092;-62
2021/08/21 02:54:36;;;;;;;4.18;2.83;;;15.10;97.40;;;;;;5036273;28;20065;-61
2021/08/21 02:57:01;;;;;;;3.75;3.08;;;15.10;97.40;;;;;;5035524;28;20163;-62
2021/08/21 02:59:27;;;;;;;4.28;3.63;;;15.10;97.70;;;;;;5035778;28;20026;-62
2021/08/21 03:01:52;;;;;;;4.35;3.72;;;15.10;97.40;;;;;;5035419;28;20033;-62
2021/08/21 03:04:18;;;;;;;5.28;3.80;;;15.20;97.60;;;;;;5035812;28;20029;-62
2021/08/21 03:06:44;;;;;;;4.45;3.90;;;15.20;97.60;;;;;;5035522;28;20100;-62
2021/08/21 03:09:09;;;;;;;4.30;3.67;;;15.20;97.60;;;;;;5035809;28;20064;-62
2021/08/21 03:11:35;;;;;;;4.47;4.03;;;15.20;97.70;;;;;;5035361;28;20456;-62
2021/08/21 03:14:00;;;;;;;5.05;3.47;;;15.20;97.70;;;;;;5035265;28;20060;-62
2021/08/21 03:16:26;;;;;;;4.43;3.25;;;15.20;97.70;;;;;;5035202;28;20021;-62
2021/08/21 03:18:52;;;;;;;4.40;3.65;;;15.20;97.70;;;;;;5035291;28;20026;-62
2021/08/21 03:21:17;;;;;;;5.28;4.13;;;15.20;97.70;;;;;;5035268;28;20100;-62
2021/08/21 03:23:43;;;;;;;4.07;3.47;;;15.30;97.80;;;;;;5035236;28;20036;-62
2021/08/21 03:26:09;;;;;;;4.50;4.07;;;15.30;97.80;;;;;;5034902;28;20029;-62
2021/08/21 03:28:35;;;;;;;5.88;4.65;;;15.30;97.90;;;;;;5035035;28;20040;-62
2021/08/21 03:31:00;;;;;;;5.10;4.47;;;15.30;97.90;;;;;;5035229;28;20033;-62
2021/08/21 03:33:26;;;;;;;5.80;4.60;;;15.30;98.00;;;;;;5034909;28;20036;-62
2021/08/21 03:35:51;;;;;;;6.20;4.90;;;15.30;98.00;;;;;;5034970;28;20029;-62
2021/08/21 03:38:17;;;;;;;5.35;4.57;;;15.30;98.30;;;;;;5034887;28;20075;-62
2021/08/21 03:40:43;;;;;;;5.18;4.60;;;15.40;98.20;;;;;;5034903;28;20033;-62
2021/08/21 03:43:09;;;;;;;7.20;4.95;;;15.30;98.20;;;;;;5034808;28;20033;-62
2021/08/21 03:45:36;;;;;;;4.80;4.30;;;15.40;98.20;;;;;;5038706;28;20044;-62
2021/08/21 03:48:01;;;;;;;6.32;5.18;;;15.40;98.30;;;;;;5054544;28;20048;-62
2021/08/21 03:50:27;;;;;;;8.75;5.68;;;15.40;98.30;;;;;;5054652;28;20068;-62
2021/08/21 03:52:52;;;;;;;7.18;4.82;;;15.40;98.30;;;;;;5054548;28;20017;-62
2021/08/21 03:55:18;;;;;;;7.68;5.68;;;15.40;98.40;;;;;;5036233;28;20062;-62
2021/08/21 03:57:43;;;;;;;6.03;5.38;;;15.30;98.50;;;;;;5054488;28;20603;-62
2021/08/21 04:00:09;;;;;;;7.28;5.18;;;15.20;98.70;;;;;;5054343;28;20075;-62
2021/08/21 04:02:35;;;;;;;6.88;6.18;;;15.20;98.80;;;;;;5054243;28;20067;-62
2021/08/21 04:05:00;;;;;;;5.60;4.57;;;15.20;98.90;;;;;;5036414;28;20388;-62
2021/08/21 04:07:26;;;;;;;5.53;4.18;;;15.30;99.00;;;;;;5054180;28;20021;-62
2021/08/21 04:09:51;;;;;;;6.00;4.65;;;15.30;99.00;;;;;;5036437;28;20032;-62
2021/08/21 04:12:18;;;;;;;8.25;4.95;;;15.30;98.90;;;;;;5053951;28;20071;-62
2021/08/21 04:14:45;;;;;;;5.93;5.13;;;15.30;98.90;;;;;;5053619;28;20033;-62
2021/08/21 04:17:11;;;;;;;6.93;5.88;;;15.40;98.90;;;;;;5053193;28;20635;-62
2021/08/21 04:19:36;;;;;;;7.35;6.45;;;15.40;99.00;;;;;;5053904;28;20032;-62
2021/08/21 04:22:02;;;;;;;6.32;5.68;;;15.40;99.00;;;;;;5035972;28;20532;-62
2021/08/21 04:24:28;;;;;;;8.48;6.03;;;15.40;99.10;;;;;;5053839;28;20048;-62
2021/08/21 04:26:53;;;;;;;7.20;6.45;;;15.40;99.10;;;;;;5053810;28;20072;-62
2021/08/21 04:29:19;;;;;;;6.85;6.13;;;15.50;99.10;;;;;;5053825;28;20078;-62
2021/08/21 04:31:45;;;;;;;7.82;6.68;;;15.40;99.20;;;;;;5053899;28;20029;-62
2021/08/21 04:34:10;;;;;;;8.65;6.45;;;15.50;99.30;;;;;;5053545;28;20037;-62
2021/08/21 04:36:35;;;;;;;6.82;6.13;;;15.50;99.30;;;;;;5053760;28;20030;-62
2021/08/21 04:39:01;;;;;;;6.45;5.57;;;15.50;99.40;;;;;;5053534;28;20031;-62
2021/08/21 04:41:27;;;;;;;6.95;6.25;;;15.50;99.40;;;;;;5053574;28;20029;-62
2021/08/21 04:43:52;;;;;;;6.38;5.43;;;15.50;99.40;;;;;;5053677;28;20035;-62
2021/08/21 04:46:18;;;;;;;6.55;5.43;;;15.60;99.40;;;;;;5035498;28;20451;-62
2021/08/21 04:48:43;;;;;;;7.25;5.68;;;15.60;99.50;;;;;;5053414;28;20078;-62
2021/08/21 04:51:09;;;;;;;6.40;5.35;;;15.60;99.50;;;;;;5053467;28;20108;-62
2021/08/21 04:53:34;;;;;;;6.85;5.90;;;15.60;99.50;;;;;;5053273;28;20030;-62
2021/08/21 04:56:00;;;;;;;7.53;5.45;;;15.60;99.50;;;;;;5053276;28;20025;-62
2021/08/21 04:58:25;;;;;;;8.25;5.97;;;15.60;99.50;;;;;;5034821;28;20473;-62
2021/08/21 05:00:51;;;;;;;6.00;5.28;;;15.60;99.50;;;;;;5053394;28;20068;-62
2021/08/21 05:03:16;;;;;;;6.32;5.63;;;15.70;99.50;;;;;;5053208;28;20063;-62
2021/08/21 05:05:44;;;;;;;7.55;6.15;;;15.70;99.60;;;;;;5053139;28;20057;-62
2021/08/21 05:08:09;;;;;;;9.05;5.88;;;15.70;99.60;;;;;;5052885;28;20021;-62
2021/08/21 05:10:35;;;;;;;7.70;5.85;;;15.70;99.60;;;;;;5053146;28;20032;-62
2021/08/21 05:13:00;;;;;;;6.15;5.53;;;15.70;99.60;;;;;;5052533;28;20017;-62
2021/08/21 05:15:26;;;;;;;6.38;5.63;;;15.80;99.60;;;;;;5050849;28;20388;-62
2021/08/21 05:17:54;;;;;;;6.07;5.40;;;15.80;99.60;;;;;;5052125;28;20043;-61
2021/08/21 05:20:31;;;;;;;6.63;6.00;;;15.80;99.60;;;;;;5051845;28;20051;-62
2021/08/21 05:23:04;;;;;;;6.82;5.25;;;15.80;99.60;;;;;;5051933;28;20016;-62
2021/08/21 05:25:31;;;;;;;6.07;5.40;;;15.90;99.70;;;;;;5050418;28;20483;-62
2021/08/21 05:27:57;;;;;;;5.90;5.28;;;15.80;99.60;;;;;;5050977;28;20482;-62
2021/08/21 05:30:27;;;;;;;6.03;5.43;;;15.90;99.70;;;;;;5051673;28;20025;-62
2021/08/21 05:32:54;;;;;;;5.85;5.28;;;15.90;99.70;;;;;;5051711;28;20076;-62
2021/08/21 05:35:19;;;;;;;6.88;6.00;;;15.90;99.90;;;;;;5051282;28;22259;-62
2021/08/21 05:37:45;;;;;;;6.82;5.40;;;15.90;99.70;;;;;;5051696;28;20103;-62
2021/08/21 05:40:11;;;;;;;7.07;5.18;;;15.90;99.80;;;;;;5051416;28;20088;-61
2021/08/21 05:42:36;;;;;;;7.28;5.95;;;16.00;99.80;;;;;;5051522;28;20025;-62
2021/08/21 05:45:02;;;;;;;6.70;5.78;;;16.00;99.90;;;;;;5051559;28;20473;-62
2021/08/21 05:47:28;;;;;;;6.53;5.72;;;16.00;99.90;;;;;;5051629;28;20409;-61
2021/08/21 05:49:54;;;;;;;6.82;5.90;;;16.10;99.90;;;;;;5033492;28;20021;-62
2021/08/21 05:52:19;;;;;;;6.15;5.55;;;16.10;99.90;;;;;;5051789;28;20480;-62
2021/08/21 05:54:45;;;;;;;5.93;5.32;;;16.10;99.90;;;;;;5051560;28;20025;-61
2021/08/21 05:57:10;;;;;;;7.88;6.20;;;16.10;99.90;;;;;;5051463;28;20020;-62
2021/08/21 05:59:35;;;;;;;7.18;6.47;;;16.20;99.90;;;;;;5051316;28;20469;-62
2021/08/21 06:02:01;;;;;;;6.53;5.90;;;16.20;99.90;;;;;;5051617;28;20017;-62
2021/08/21 06:04:27;;;;;;;7.40;6.13;;;16.20;99.90;;;;;;5050148;28;20384;-61
2021/08/21 06:06:52;;;;;;;7.55;6.60;;;16.20;99.90;;;;;;5051591;28;20082;-62
2021/08/21 06:09:20;;;;;;;9.00;8.05;;;16.30;99.90;;;;;;5053878;28;20033;-62
2021/08/21 06:11:46;;;;;;;11.35;8.93;;;16.30;99.90;;;;;;5056582;28;20029;-62
2021/08/21 06:14:11;;;;;;;9.70;8.45;;;16.30;99.90;;;;;;5056355;28;20024;-62
2021/08/21 06:16:37;;;;;;;11.82;8.35;;;16.40;99.90;;;;;;5056311;28;20054;-62
2021/08/21 06:19:02;;;;;;;10.10;8.52;;;16.40;99.90;;;;;;5054707;28;20078;-62
2021/08/21 06:21:28;;;;;;;9.25;8.25;;;16.50;99.90;;;;;;5056247;28;20029;-62
2021/08/21 06:23:56;;;;;;;9.00;7.80;;;16.50;99.90;;;;;;5038316;28;20066;-61
2021/08/21 06:26:32;;;;;;;9.13;7.97;;;16.60;99.90;;;;;;5056070;28;20024;-62
2021/08/21 06:28:57;;;;;;;9.63;8.55;;;16.70;99.90;;;;;;5056360;28;20507;-62
2021/08/21 06:31:23;;;;;;;10.63;8.40;;;16.70;99.90;;;;;;5056030;28;20037;-62
2021/08/21 06:33:48;;;;;;;11.80;8.85;;;16.80;99.90;;;;;;5055903;28;20041;-62
2021/08/21 06:36:14;;;;;;;12.43;9.68;;;16.80;99.90;;;;;;5054831;28;20025;-62
2021/08/21 06:38:39;;;;;;;10.23;8.63;;;16.80;99.90;;;;;;5055698;28;20112;-62
2021/08/21 06:41:05;;;;;;;9.43;8.32;;;16.90;99.90;;;;;;5055948;28;20032;-62
2021/08/21 06:43:41;;;;;;;12.13;9.93;;;16.90;99.90;;;;;;5055903;28;20083;-62
2021/08/21 06:46:07;;;;;;;10.48;9.38;;;17.00;99.90;;;;;;5055814;28;20103;-62
2021/08/21 06:48:34;;;;;;;11.52;9.73;;;17.00;99.90;;;;;;5055793;28;20029;-62
2021/08/21 06:51:01;;;;;;;13.93;11.02;;;17.10;99.90;;;;;;5055865;28;20044;-62
2021/08/21 06:53:29;;;;;;;15.20;12.32;;;17.10;99.90;;;;;;5040531;28;20044;-62
2021/08/21 06:55:55;;;;;;;17.13;14.23;;;17.20;99.90;;;;;;5035761;28;20022;-62
2021/08/21 06:58:21;;;;;;;18.60;16.13;;;17.20;99.90;;;;;;5035815;28;20024;-62
2021/08/21 07:00:47;;;;;;;18.35;15.63;;;17.30;99.90;;;;;;5035480;28;20389;-64
2021/08/21 07:03:12;;;;;;;17.73;13.80;;;17.30;99.90;;;;;;5049087;28;20108;-62
2021/08/21 07:05:38;;;;;;;16.85;13.32;;;17.40;99.90;;;;;;5054790;28;20108;-62
2021/08/21 07:08:03;;;;;;;18.40;14.55;;;17.40;99.90;;;;;;5054677;28;20520;-62
2021/08/21 07:10:29;;;;;;;18.80;14.32;;;17.50;99.90;;;;;;5036554;28;20033;-62
2021/08/21 07:12:55;;;;;;;17.45;13.70;;;17.60;99.90;;;;;;5037145;28;20028;-62
2021/08/21 07:15:20;;;;;;;17.02;14.15;;;17.70;99.90;;;;;;5055159;28;20036;-62
2021/08/21 07:17:46;;;;;;;15.07;12.65;;;17.70;99.90;;;;;;5055251;28;20025;-62
2021/08/21 07:20:12;;;;;;;17.20;13.43;;;17.80;99.90;;;;;;5054465;28;20021;-62
2021/08/21 07:22:37;;;;;;;14.05;11.25;;;18.00;99.90;;;;;;5055245;28;20396;-62
2021/08/21 07:25:04;;;;;;;19.17;14.48;;;18.10;99.90;;;;;;5036680;28;20476;-62
2021/08/21 07:27:29;;;;;;;15.00;12.30;;;18.20;99.90;;;;;;5054395;28;20040;-62
2021/08/21 07:29:55;;;;;;;18.05;14.18;;;18.30;99.90;;;;;;5036320;28;20025;-62
2021/08/21 07:32:20;;;;;;;23.50;17.50;;;18.40;99.90;;;;;;5054380;28;20036;-62
2021/08/21 07:34:46;;;;;;;21.00;17.20;;;18.50;99.90;;;;;;5054728;28;20051;-62
2021/08/21 07:37:11;;;;;;;24.30;18.73;;;18.60;99.90;;;;;;5054789;28;20060;-62
2021/08/21 07:39:37;;;;;;;24.20;18.42;;;18.60;99.90;;;;;;5054817;28;20473;-62
2021/08/21 07:42:02;;;;;;;21.80;18.55;;;18.60;99.90;;;;;;5054782;28;20590;-62
2021/08/21 07:44:31;;;;;;;25.25;18.75;;;18.70;99.80;;;;;;5052829;28;20618;-63
2021/08/21 07:46:56;;;;;;;21.05;18.13;;;18.70;99.70;;;;;;5051148;28;20049;-63
2021/08/21 07:49:22;;;;;;;21.95;17.15;;;18.70;99.70;;;;;;5054173;28;20362;-63
2021/08/21 07:51:48;;;;;;;22.63;16.38;;;18.80;99.50;;;;;;5053270;28;20504;-63
2021/08/21 07:54:15;;;;;;;18.13;15.10;;;18.80;99.50;;;;;;5047541;28;20025;-63
2021/08/21 07:56:41;;;;;;;18.92;15.30;;;18.90;99.40;;;;;;5051190;28;20098;-63
2021/08/21 07:59:07;;;;;;;19.95;16.88;;;19.00;99.30;;;;;;5053626;28;20481;-63
2021/08/21 08:01:37;;;;;;;14.95;12.77;;;19.10;99.20;;;;;;5053801;28;20044;-63
2021/08/21 08:04:06;;;;;;;16.23;12.98;;;19.20;99.10;;;;;;5054270;28;20029;-63
2021/08/21 08:06:31;;;;;;;15.18;13.10;;;19.20;99.00;;;;;;5054366;28;20032;-63
2021/08/21 08:08:57;;;;;;;13.02;10.90;;;19.40;99.00;;;;;;5054449;28;20029;-63
2021/08/21 08:11:22;;;;;;;13.02;10.88;;;19.50;98.90;;;;;;5054243;28;20405;-63
2021/08/21 08:13:48;;;;;;;15.05;12.07;;;19.60;98.80;;;;;;5053870;28;20044;-63
2021/08/21 08:16:13;;;;;;;19.48;14.65;;;19.70;98.70;;;;;;5053990;28;20033;-63
2021/08/21 08:18:39;;;;;;;20.63;17.00;;;19.70;98.50;;;;;;5054095;28;20114;-63
2021/08/21 08:21:04;;;;;;;21.25;18.67;;;19.70;98.20;;;;;;5054017;28;20021;-62
2021/08/21 08:23:41;;;;;;;18.45;16.17;;;19.70;98.00;;;;;;5053733;28;20017;-62
2021/08/21 08:26:07;;;;;;;20.00;16.73;;;19.80;97.90;;;;;;5035886;28;20028;-62
2021/08/21 08:28:32;;;;;;;18.38;16.08;;;19.80;97.80;;;;;;5053795;28;20082;-62
2021/08/21 08:30:58;;;;;;;22.17;17.85;;;19.90;97.50;;;;;;5035553;28;20033;-62
2021/08/21 08:33:23;;;;;;;19.63;14.80;;;19.90;97.30;;;;;;5052658;28;20108;-62
2021/08/21 08:35:51;;;;;;;18.63;15.20;;;20.10;97.30;;;;;;5053379;28;20029;-63
2021/08/21 08:38:20;;;;;;;18.88;16.33;;;20.30;97.20;;;;;;5034996;28;20029;-62
2021/08/21 08:40:47;;;;;;;15.20;12.90;;;20.40;97.10;;;;;;5053467;28;20021;-62
2021/08/21 08:43:23;;;;;;;15.60;14.00;;;20.50;97.00;;;;;;5053060;28;20091;-63
2021/08/21 08:45:49;;;;;;;16.83;14.88;;;20.50;96.70;;;;;;5034821;28;20312;-62
2021/08/21 08:48:15;;;;;;;20.55;15.52;;;20.40;96.30;;;;;;5053505;28;20032;-63
2021/08/21 08:50:43;;;;;;;16.00;12.00;;;20.50;96.30;;;;;;5052918;28;20032;-63
2021/08/21 08:53:08;;;;;;;20.45;15.65;;;20.60;96.30;;;;;;5052127;28;20075;-62
2021/08/21 08:55:34;;;;;;;18.20;14.77;;;20.60;96.10;;;;;;5018227;28;20025;-62
2021/08/21 08:58:26;;;;;;;15.65;14.05;;;20.70;96.00;;;;;;5052771;28;20017;-63
2021/08/21 09:00:51;;;;;;;18.88;15.15;;;20.80;95.90;;;;;;5052204;28;20384;-62
2021/08/21 09:03:19;;;;;;;18.63;15.15;;;20.90;95.70;;;;;;5034785;28;20465;-62
2021/08/21 09:05:45;;;;;;;15.75;13.43;;;21.00;95.70;;;;;;5052771;28;20488;-62
2021/08/21 09:08:28;;;;;;;16.73;13.90;;;21.00;95.50;;;;;;5052565;28;20056;-63
2021/08/21 09:10:55;;;;;;;18.98;16.45;;;21.20;95.20;;;;;;5052214;28;20396;-63
2021/08/21 09:13:21;;;;;;;17.45;15.15;;;21.20;94.90;;;;;;5052276;28;20017;-62
2021/08/21 09:15:51;;;;;;;19.27;15.70;;;21.20;94.80;;;;;;5051815;28;20141;-63
2021/08/21 09:18:18;;;;;;;15.35;13.65;;;21.30;94.50;;;;;;5052289;28;20025;-63
2021/08/21 09:20:51;;;;;;;15.48;13.82;;;21.40;94.70;;;;;;5052285;28;20009;-63
2021/08/21 09:23:22;;;;;;;15.02;13.10;;;21.50;94.00;;;;;;5052267;28;20013;-63
2021/08/21 09:26:09;;;;;;;13.73;12.07;;;21.60;94.00;;;;;;5052075;28;20477;-63
2021/08/21 09:28:37;;;;;;;15.77;12.80;;;21.70;94.10;;;;;;5051728;28;20040;-63
2021/08/21 09:31:05;;;;;;;15.27;13.07;;;21.90;93.50;;;;;;5052315;28;20032;-63
2021/08/21 09:33:32;;;;;;;15.43;13.82;;;21.90;93.00;;;;;;5052819;28;20052;-62
2021/08/21 09:35:58;;;;;;;15.80;13.30;;;22.00;92.70;;;;;;5052756;28;20020;-63
2021/08/21 09:38:31;;;;;;;14.35;12.85;;;22.10;92.60;;;;;;5052653;28;20025;-63
2021/08/21 09:41:07;;;;;;;14.68;11.98;;;22.10;92.50;;;;;;5052520;28;20079;-63
2021/08/21 09:43:35;;;;;;;11.73;10.18;;;22.10;92.40;;;;;;5052131;28;20116;-63
2021/08/21 09:46:27;;;;;;;14.73;12.35;;;22.30;92.40;;;;;;5034533;28;20481;-63
2021/08/21 09:49:04;;;;;;;11.30;9.27;;;22.40;92.10;;;;;;5048848;28;20072;-63
2021/08/21 09:51:38;;;;;;;10.40;9.30;;;22.50;91.90;;;;;;5052452;28;20036;-63
2021/08/21 09:54:41;;;;;;;12.57;10.18;;;22.70;91.90;;;;;;5052495;28;20786;-63
2021/08/21 09:58:26;;;;;;;13.70;11.73;;;22.80;91.40;;;;;;5029126;28;20044;-63
2021/08/21 10:00:45;;;;;;;13.30;10.98;;;22.90;91.10;;;;;;5041541;28;20426;-63
2021/08/21 10:03:20;;;;;;;15.25;9.90;;;23.00;90.20;;;;;;5051641;28;20096;-63
2021/08/21 10:05:48;;;;;;;10.43;9.18;;;23.00;88.80;;;;;;5033928;28;20016;-63
2021/08/21 10:08:34;;;;;;;11.07;9.98;;;23.10;88.90;;;;;;5048859;28;20437;-63
2021/08/21 10:11:00;;;;;;;10.80;9.18;;;23.20;89.30;;;;;;5051663;28;20104;-63
2021/08/21 10:13:28;;;;;;;11.68;9.00;;;23.30;89.60;;;;;;5051622;28;20108;-63
2021/08/21 10:15:56;;;;;;;11.05;8.00;;;23.50;88.50;;;;;;5051518;28;20438;-63
2021/08/21 10:18:23;;;;;;;8.65;7.60;;;23.60;87.70;;;;;;5051746;28;20423;-63
2021/08/21 10:20:50;;;;;;;8.93;6.97;;;23.60;86.20;;;;;;5051511;28;20539;-63
2021/08/21 10:23:23;;;;;;;7.72;6.10;;;23.70;85.30;;;;;;5033902;28;20083;-63
2021/08/21 10:26:11;;;;;;;9.23;5.93;;;23.80;84.20;;;;;;5051588;28;20476;-63
2021/08/21 10:28:51;;;;;;;10.48;7.70;;;23.90;83.70;;;;;;5049370;28;20040;-63
2021/08/21 10:31:36;;;;;;;7.00;5.13;;;24.00;83.30;;;;;;5049380;28;20017;-63
2021/08/21 10:34:02;;;;;;;6.90;5.63;;;24.20;83.80;;;;;;5033694;28;20079;-63
2021/08/21 10:36:41;;;;;;;9.68;7.60;;;24.30;83.30;;;;;;5051332;28;20445;-63
2021/08/21 10:42:26;;;;;;;9.65;7.40;;;24.60;81.70;;;;;;5048193;28;19908;-63
2021/08/21 10:44:54;;;;;;;9.82;6.90;;;24.70;81.20;;;;;;5050964;28;20032;-63
2021/08/21 10:47:34;;;;;;;6.15;4.55;;;24.80;80.00;;;;;;5050183;28;20051;-63
2021/08/21 10:50:21;;;;;;;4.90;3.83;;;25.00;80.60;;;;;;5032865;28;20017;-63
2021/08/21 10:52:48;;;;;;;9.70;7.22;;;25.30;80.90;;;;;;5030726;28;20106;-63
2021/08/21 10:55:16;;;;;;;9.30;6.78;;;25.40;78.70;;;;;;5051987;28;20033;-63
2021/08/21 10:58:21;;;;;;;6.13;5.38;;;25.40;76.20;;;;;;5055369;28;20025;-63
2021/08/21 11:00:49;;;;;;;11.20;10.07;;;25.40;77.30;;;;;;4978106;28;20069;-63
2021/08/21 11:03:22;;;;;;;7.53;6.73;;;25.40;77.20;;;;;;5055486;28;20078;-63
2021/08/21 11:06:06;;;;;;;8.25;6.70;;;25.40;77.10;;;;;;5055366;28;20452;-63
2021/08/21 11:08:39;;;;;;;5.95;5.20;;;25.60;77.30;;;;;;5055297;28;20013;-63
2021/08/21 11:11:11;;;;;;;6.38;5.72;;;26.00;78.00;;;;;;5055079;28;20504;-63
2021/08/21 11:14:09;;;;;;;5.80;5.20;;;26.40;75.80;;;;;;5036409;28;20025;-63
2021/08/21 11:17:02;;;;;;;7.70;6.85;;;27.50;74.30;;;;;;5054515;28;20488;-63
2021/08/21 11:19:57;;;;;;;4.85;4.15;;;28.20;72.10;;;;;;5053077;28;20389;-63
2021/08/21 11:22:26;;;;;;;4.72;4.15;;;28.70;71.40;;;;;;5034832;28;20163;-63
2021/08/21 11:24:52;;;;;;;5.53;4.95;;;28.70;70.20;;;;;;5035729;28;20568;-63
2021/08/21 11:27:27;;;;;;;7.68;6.88;;;28.70;69.30;;;;;;5054101;28;20040;-64
2021/08/21 11:30:24;;;;;;;8.15;6.70;;;28.50;68.10;;;;;;5053593;28;20032;-63
2021/08/21 11:33:02;;;;;;;6.63;6.00;;;28.10;67.20;;;;;;5052584;28;20047;-63
2021/08/21 11:35:35;;;;;;;6.75;5.28;;;27.70;68.40;;;;;;5052274;28;20032;-63
2021/08/21 11:38:06;;;;;;;5.32;4.75;;;27.60;69.10;;;;;;5051917;28;20017;-63
2021/08/21 11:40:49;;;;;;;8.38;5.75;;;27.70;69.70;;;;;;5052614;28;20025;-64
2021/08/21 11:43:17;;;;;;;6.95;6.25;;;27.70;68.10;;;;;;5050110;28;20544;-63
2021/08/21 11:45:44;;;;;;;6.50;5.68;;;27.60;67.90;;;;;;5053048;28;20052;-63
2021/08/21 11:48:10;;;;;;;7.00;5.07;;;27.30;68.50;;;;;;5053021;28;20025;-63
2021/08/21 11:50:39;;;;;;;7.80;5.53;;;27.20;68.60;;;;;;5053830;28;20021;-63
2021/08/21 11:53:13;;;;;;;6.95;4.68;;;27.10;68.60;;;;;;5052347;28;20033;-63
2021/08/21 11:55:39;;;;;;;5.93;4.97;;;26.90;68.80;;;;;;5053526;28;20025;-63
2021/08/21 11:58:06;;;;;;;4.90;4.40;;;26.80;69.60;;;;;;5035228;28;20070;-63
2021/08/21 12:00:34;;;;;;;4.07;3.08;;;26.70;68.90;;;;;;5052404;28;20017;-63
2021/08/21 12:03:08;;;;;;;4.63;3.10;;;26.70;69.20;;;;;;5052936;28;20024;-63
2021/08/21 12:05:51;;;;;;;4.95;4.18;;;26.80;69.50;;;;;;5034463;28;20390;-63
2021/08/21 12:08:22;;;;;;;5.18;3.85;;;26.90;68.20;;;;;;5053370;28;20025;-63
2021/08/21 12:10:49;;;;;;;4.18;3.17;;;26.80;68.20;;;;;;5053194;28;20021;-63
2021/08/21 12:13:18;;;;;;;4.40;2.88;;;26.90;68.30;;;;;;5052006;28;20456;-63
2021/08/21 12:15:45;;;;;;;3.28;2.10;;;27.10;68.10;;;;;;5052477;28;20025;-63
2021/08/21 12:18:11;;;;;;;4.97;3.45;;;27.30;68.20;;;;;;5052567;28;20088;-63
2021/08/21 12:20:38;;;;;;;4.70;3.80;;;27.30;66.10;;;;;;5052640;28;20097;-63
2021/08/21 12:23:08;;;;;;;3.97;3.10;;;27.20;65.40;;;;;;5052566;28;20477;-64
2021/08/21 12:25:51;;;;;;;4.32;3.67;;;27.10;65.70;;;;;;5035420;28;20021;-64
2021/08/21 12:28:19;;;;;;;4.32;3.50;;;27.20;65.50;;;;;;5053059;28;20021;-63
2021/08/21 12:31:05;;;;;;;4.85;4.07;;;27.10;65.30;;;;;;5053186;28;20506;-63
2021/08/21 12:34:14;;;;;;;;;;;;;;;;;;;;;
2021/08/21 12:37:13;;;;;;;4.93;3.35;;;26.90;65.10;;;;;;5052647;28;20480;-63
2021/08/21 12:39:42;;;;;;;4.05;2.50;;;26.90;65.40;;;;;;5034534;28;20021;-63
2021/08/21 12:42:21;;;;;;;3.13;2.13;;;27.00;66.00;;;;;;5052032;28;20033;-63
2021/08/21 12:44:46;;;;;;;2.20;1.58;;;27.30;66.20;;;;;;5052148;28;20024;-63
2021/08/21 12:47:20;;;;;;;3.67;2.42;;;27.70;66.20;;;;;;5051953;28;20107;-64
2021/08/21 12:49:47;;;;;;;4.50;3.10;;;27.80;65.30;;;;;;5052294;28;20404;-63
2021/08/21 12:52:17;;;;;;;7.00;4.05;;;27.80;64.60;;;;;;5050011;28;20021;-63
2021/08/21 12:54:44;;;;;;;5.13;2.83;;;27.40;63.90;;;;;;5052415;28;20021;-64
2021/08/21 12:57:18;;;;;;;5.70;2.60;;;27.00;64.00;;;;;;5052582;28;20021;-63
2021/08/21 12:59:46;;;;;;;4.10;2.83;;;26.90;64.30;;;;;;5052555;28;20021;-63
2021/08/21 13:02:15;;;;;;;3.10;1.83;;;26.80;63.90;;;;;;5053291;28;20096;-63